createdAt,value
2023-05-03T00:01:43.916Z,101905.91
2023-05-03T00:04:10.823Z,101909.25
2023-05-03T00:06:37.386Z,101911.09
2023-05-03T00:09:04.038Z,101907.41
2023-05-03T00:11:30.581Z,101910.97
2023-05-03T00:13:57.122Z,101910.19
2023-05-03T00:16:23.660Z,101904.38
2023-05-03T00:18:50.283Z,101909.28
2023-05-03T00:21:17.262Z,101903.47
2023-05-03T00:23:43.824Z,101909.47
2023-05-03T00:26:10.473Z,101919.75
2023-05-03T00:28:37.448Z,101913.78
2023-05-03T00:31:09.492Z,101915.72
2023-05-03T00:33:37.453Z,101914.38
2023-05-03T00:36:11.477Z,101912.25
2023-05-03T00:38:40.252Z,101912.22
2023-05-03T00:41:10.843Z,101924.00
2023-05-03T00:43:37.812Z,101927.00
2023-05-03T00:46:16.067Z,101925.53
2023-05-03T00:48:45.209Z,101932.72
2023-05-03T00:51:14.505Z,101931.88
2023-05-03T00:53:42.128Z,101929.03
2023-05-03T00:56:09.839Z,101921.16
2023-05-03T00:58:39.935Z,101920.56
2023-05-03T01:01:10.006Z,101919.38
2023-05-03T01:03:41.098Z,101916.91
2023-05-03T01:06:33.769Z,101921.50
2023-05-03T01:09:18.978Z,101917.28
2023-05-03T01:12:19.647Z,101912.19
2023-05-03T01:15:26.697Z,101915.69
2023-05-03T01:17:59.748Z,101919.69
2023-05-03T01:20:30.844Z,101916.41
2023-05-03T01:23:16.164Z,101927.19
2023-05-03T01:25:42.709Z,101929.16
2023-05-03T01:28:09.351Z,101919.91
2023-05-03T01:30:37.559Z,101923.63
2023-05-03T01:33:22.780Z,101927.06
2023-05-03T01:35:55.708Z,101932.66
2023-05-03T01:38:23.163Z,101923.56
2023-05-03T01:40:58.671Z,101927.09
2023-05-03T01:43:26.200Z,101930.94
2023-05-03T01:45:52.778Z,101920.47
2023-05-03T01:48:19.692Z,101930.13
2023-05-03T01:50:46.807Z,101934.94
2023-05-03T01:53:13.838Z,101935.34
2023-05-03T01:55:40.451Z,101931.91
2023-05-03T01:58:07.181Z,101929.72
2023-05-03T02:00:33.842Z,101936.91
2023-05-03T02:03:00.574Z,101928.38
2023-05-03T02:05:27.223Z,101934.03
2023-05-03T02:07:54.032Z,101940.66
2023-05-03T02:10:20.966Z,101946.44
2023-05-03T02:12:47.648Z,101955.97
2023-05-03T02:15:14.751Z,101955.75
2023-05-03T02:17:43.142Z,101952.09
2023-05-03T02:20:09.935Z,101951.53
2023-05-03T02:22:36.969Z,101955.75
2023-05-03T02:25:03.762Z,101956.25
2023-05-03T02:27:30.355Z,101954.31
2023-05-03T02:29:56.854Z,101959.19
2023-05-03T02:32:24.151Z,101957.44
2023-05-03T02:34:50.776Z,101952.97
2023-05-03T02:37:21.041Z,101959.72
2023-05-03T02:39:48.086Z,101962.31
2023-05-03T02:42:16.142Z,101973.59
2023-05-03T02:44:46.225Z,101960.78
2023-05-03T02:47:12.778Z,101965.19
2023-05-03T02:49:41.874Z,101966.88
2023-05-03T02:52:08.491Z,101969.09
2023-05-03T02:54:35.027Z,101958.25
2023-05-03T02:57:07.537Z,101959.19
2023-05-03T02:59:34.148Z,101954.47
2023-05-03T03:02:01.537Z,101957.81
2023-05-03T03:04:29.059Z,101946.84
2023-05-03T03:06:56.736Z,101948.53
2023-05-03T03:09:23.508Z,101949.97
2023-05-03T03:11:53.460Z,101949.81
2023-05-03T03:14:20.729Z,101949.31
2023-05-03T03:16:47.834Z,101939.81
2023-05-03T03:19:15.030Z,101937.19
2023-05-03T03:21:41.752Z,101931.69
2023-05-03T03:24:09.142Z,101931.03
2023-05-03T03:26:35.736Z,101927.59
2023-05-03T03:29:02.645Z,101926.88
2023-05-03T03:31:29.705Z,101917.13
2023-05-03T03:33:56.501Z,101925.94
2023-05-03T03:36:27.874Z,101924.47
2023-05-03T03:38:54.399Z,101927.47
2023-05-03T03:41:21.275Z,101921.31
2023-05-03T03:43:49.028Z,101920.94
2023-05-03T03:46:18.988Z,101914.75
2023-05-03T03:48:48.904Z,101923.34
2023-05-03T03:51:16.060Z,101919.22
2023-05-03T03:53:46.743Z,101933.72
2023-05-03T03:56:13.326Z,101926.84
2023-05-03T03:58:40.982Z,101927.25
2023-05-03T04:01:09.062Z,101916.78
2023-05-03T04:03:36.442Z,101918.34
2023-05-03T04:06:03.806Z,101909.03
2023-05-03T04:08:30.838Z,101906.47
2023-05-03T04:10:57.417Z,101903.47
2023-05-03T04:13:25.467Z,101905.06
2023-05-03T04:15:56.173Z,101906.31
2023-05-03T04:18:23.353Z,101898.44
2023-05-03T04:20:51.613Z,101901.75
2023-05-03T04:23:18.206Z,101892.22
2023-05-03T04:25:48.442Z,101893.94
2023-05-03T04:28:16.592Z,101897.44
2023-05-03T04:30:47.294Z,101901.56
2023-05-03T04:33:16.892Z,101909.88
2023-05-03T04:35:43.857Z,101913.28
2023-05-03T04:38:14.528Z,101908.69
2023-05-03T04:40:41.176Z,101910.34
2023-05-03T04:43:09.589Z,101925.81
2023-05-03T04:45:39.782Z,101937.09
2023-05-03T04:48:09.844Z,101937.03
2023-05-03T04:50:36.573Z,101931.03
2023-05-03T04:53:04.383Z,101942.91
2023-05-03T04:55:34.076Z,101943.31
2023-05-03T04:58:02.829Z,101946.50
2023-05-03T05:00:29.737Z,101942.53
2023-05-03T05:03:02.007Z,101939.69
2023-05-03T05:05:31.515Z,101936.91
2023-05-03T05:07:59.625Z,101940.09
2023-05-03T05:10:30.927Z,101939.59
2023-05-03T05:12:58.472Z,101946.28
2023-05-03T05:15:25.683Z,101942.44
2023-05-03T05:17:52.423Z,101953.53
2023-05-03T05:20:20.192Z,101948.91
2023-05-03T05:22:49.491Z,101959.22
2023-05-03T05:25:16.130Z,101974.19
2023-05-03T05:27:43.337Z,101972.28
2023-05-03T05:30:10.072Z,101971.34
2023-05-03T05:32:39.563Z,101971.81
2023-05-03T05:35:09.438Z,101975.19
2023-05-03T05:37:36.531Z,101982.16
2023-05-03T05:40:05.694Z,101979.34
2023-05-03T05:42:38.167Z,101998.06
2023-05-03T05:45:07.978Z,101996.44
2023-05-03T05:47:35.414Z,101989.88
2023-05-03T05:50:09.593Z,101977.94
2023-05-03T05:52:42.628Z,101989.94
2023-05-03T05:55:13.572Z,101990.03
2023-05-03T05:57:41.041Z,101987.69
2023-05-03T06:00:14.455Z,101991.13
2023-05-03T06:02:42.373Z,101995.19
2023-05-03T06:05:12.516Z,101996.00
2023-05-03T06:07:39.120Z,102005.44
2023-05-03T06:10:07.016Z,102005.47
2023-05-03T06:12:35.001Z,102011.88
2023-05-03T06:15:03.311Z,102012.75
2023-05-03T06:17:35.932Z,102009.78
2023-05-03T06:20:04.555Z,102008.91
2023-05-03T06:22:31.664Z,102008.06
2023-05-03T06:24:58.509Z,102014.72
2023-05-03T06:27:26.021Z,102009.75
2023-05-03T06:29:53.533Z,102013.22
2023-05-03T06:32:22.132Z,102011.06
2023-05-03T06:34:49.600Z,102008.06
2023-05-03T06:37:17.238Z,102010.44
2023-05-03T06:39:44.658Z,102012.16
2023-05-03T06:42:11.452Z,102019.63
2023-05-03T06:44:40.331Z,102012.34
2023-05-03T06:47:07.314Z,102011.50
2023-05-03T06:49:34.049Z,102011.06
2023-05-03T06:52:00.727Z,102009.38
2023-05-03T06:54:27.226Z,102002.47
2023-05-03T06:56:53.766Z,102006.13
2023-05-03T06:59:20.449Z,102001.63
2023-05-03T07:01:47.104Z,102015.31
2023-05-03T07:04:13.872Z,102015.56
2023-05-03T07:06:55.273Z,102016.75
2023-05-03T07:09:32.048Z,102017.25
2023-05-03T07:12:08.523Z,102020.84
2023-05-03T07:14:35.037Z,102017.91
2023-05-03T07:17:01.569Z,102019.00
2023-05-03T07:19:28.078Z,102015.59
2023-05-03T07:21:54.654Z,102011.50
2023-05-03T07:24:21.152Z,102012.03
2023-05-03T07:26:49.028Z,102015.91
2023-05-03T07:29:15.672Z,102018.75
2023-05-03T07:31:42.446Z,102014.06
2023-05-03T07:34:08.943Z,101998.75
2023-05-03T07:36:35.551Z,102008.09
2023-05-03T07:39:02.087Z,101996.56
2023-05-03T07:41:28.619Z,101986.97
2023-05-03T07:43:55.814Z,101992.38
2023-05-03T07:46:23.148Z,101988.50
2023-05-03T07:48:49.697Z,101979.03
2023-05-03T07:51:16.515Z,101977.25
2023-05-03T07:53:44.037Z,101972.94
2023-05-03T07:56:11.427Z,101973.84
2023-05-03T07:58:40.460Z,101980.78
2023-05-03T08:01:07.733Z,101980.94
2023-05-03T08:03:34.620Z,101986.91
2023-05-03T08:06:01.552Z,101979.34
2023-05-03T08:08:28.355Z,101981.47
2023-05-03T08:10:54.968Z,101976.38
2023-05-03T08:13:22.625Z,101991.81
2023-05-03T08:15:50.667Z,101978.41
2023-05-03T08:18:17.256Z,101978.16
2023-05-03T08:20:44.798Z,101972.34
2023-05-03T08:23:11.343Z,101974.47
2023-05-03T08:25:38.075Z,101966.84
2023-05-03T08:28:04.744Z,101966.31
2023-05-03T08:30:31.507Z,101971.19
2023-05-03T08:32:58.157Z,101978.59
2023-05-03T08:35:25.826Z,101976.00
2023-05-03T08:37:52.374Z,101971.66
2023-05-03T08:40:22.699Z,101979.91
2023-05-03T08:42:52.675Z,101973.88
2023-05-03T08:45:19.523Z,101976.66
2023-05-03T08:47:46.083Z,101980.69
2023-05-03T08:50:16.257Z,101972.88
2023-05-03T08:52:43.286Z,101966.03
2023-05-03T08:55:11.092Z,101972.25
2023-05-03T08:57:37.982Z,101965.66
2023-05-03T09:00:06.576Z,101955.66
2023-05-03T09:02:34.919Z,101956.59
2023-05-03T09:05:01.866Z,101960.19
2023-05-03T09:07:28.798Z,101966.97
2023-05-03T09:09:57.068Z,101964.94
2023-05-03T09:12:36.978Z,101956.91
2023-05-03T09:15:04.470Z,101955.19
2023-05-03T09:17:31.112Z,101959.09
2023-05-03T09:19:58.922Z,101947.81
2023-05-03T09:22:28.431Z,101952.72
2023-05-03T09:24:57.271Z,101944.59
2023-05-03T09:27:25.573Z,101947.41
2023-05-03T09:29:52.998Z,101942.44
2023-05-03T09:32:22.203Z,101941.47
2023-05-03T09:34:48.798Z,101947.97
2023-05-03T09:37:15.496Z,101945.38
2023-05-03T09:39:43.872Z,101949.34
2023-05-03T09:42:19.546Z,101932.31
2023-05-03T09:44:53.704Z,101932.44
2023-05-03T09:47:21.902Z,101940.59
2023-05-03T09:49:48.597Z,101930.69
2023-05-03T09:52:15.126Z,101935.78
2023-05-03T09:54:42.230Z,101925.94
2023-05-03T09:57:09.375Z,101928.84
2023-05-03T09:59:37.997Z,101933.09
2023-05-03T10:02:07.464Z,101926.31
2023-05-03T10:04:51.223Z,101928.88
2023-05-03T10:07:20.655Z,101929.81
2023-05-03T10:09:47.872Z,101917.44
2023-05-03T10:12:17.470Z,101915.41
2023-05-03T10:14:48.659Z,101923.78
2023-05-03T10:17:45.551Z,101909.78
2023-05-03T10:20:33.267Z,101904.91
2023-05-03T10:23:12.164Z,101900.09
2023-05-03T10:25:59.788Z,101904.13
2023-05-03T10:28:26.450Z,101899.16
2023-05-03T10:30:53.043Z,101897.81
2023-05-03T10:33:19.647Z,101907.25
2023-05-03T10:35:53.009Z,101899.06
2023-05-03T10:38:27.588Z,101897.03
2023-05-03T10:40:55.610Z,101903.38
2023-05-03T10:43:31.418Z,101897.88
2023-05-03T10:46:03.020Z,101895.56
2023-05-03T10:48:30.894Z,101899.38
2023-05-03T10:51:18.459Z,101906.88
2023-05-03T10:53:45.081Z,101893.91
2023-05-03T10:56:15.155Z,101905.19
2023-05-03T10:58:46.684Z,101909.41
2023-05-03T11:01:16.082Z,101897.38
2023-05-03T11:03:52.192Z,101888.88
2023-05-03T11:06:35.816Z,101882.13
2023-05-03T11:09:05.872Z,101883.63
2023-05-03T11:11:33.294Z,101882.50
2023-05-03T11:13:59.889Z,101879.31
2023-05-03T11:16:27.178Z,101870.78
2023-05-03T11:18:54.122Z,101869.41
2023-05-03T11:21:21.200Z,101870.78
2023-05-03T11:23:48.054Z,101864.97
2023-05-03T11:26:14.916Z,101865.25
2023-05-03T11:28:43.532Z,101861.13
2023-05-03T11:31:11.308Z,101866.31
2023-05-03T11:33:39.481Z,101860.88
2023-05-03T11:36:09.429Z,101859.53
2023-05-03T11:38:39.292Z,101863.78
2023-05-03T11:41:17.340Z,101862.34
2023-05-03T11:43:57.792Z,101861.72
2023-05-03T11:46:35.402Z,101866.09
2023-05-03T11:49:03.398Z,101861.84
2023-05-03T11:51:31.266Z,101859.13
2023-05-03T11:54:06.882Z,101862.78
2023-05-03T11:56:40.074Z,101862.53
2023-05-03T11:59:06.561Z,101853.78
2023-05-03T12:01:33.271Z,101854.50
2023-05-03T12:04:02.648Z,101863.84
2023-05-03T12:06:34.448Z,101860.97
2023-05-03T12:09:03.492Z,101855.81
2023-05-03T12:11:32.694Z,101855.66
2023-05-03T12:14:02.281Z,101854.41
2023-05-03T12:16:47.379Z,101863.41
2023-05-03T12:19:24.505Z,101855.88
2023-05-03T12:22:04.721Z,101853.88
2023-05-03T12:24:39.405Z,101859.56
2023-05-03T12:27:08.438Z,101846.78
2023-05-03T12:29:35.721Z,101840.44
2023-05-03T12:32:03.812Z,101842.19
2023-05-03T12:34:35.414Z,101844.53
2023-05-03T12:37:05.758Z,101840.72
2023-05-03T12:39:39.218Z,101828.25
2023-05-03T12:42:08.858Z,101835.47
2023-05-03T12:44:42.651Z,101820.84
2023-05-03T12:47:10.533Z,101820.97
2023-05-03T12:49:38.998Z,101817.75
2023-05-03T12:52:35.252Z,101811.84
2023-05-03T12:54:55.751Z,101813.63
2023-05-03T12:57:24.400Z,101801.31
2023-05-03T12:59:55.115Z,101802.28
2023-05-03T13:05:00.435Z,101794.31
2023-05-03T13:07:31.246Z,101800.72
2023-05-03T13:12:32.407Z,101792.19
2023-05-03T13:14:59.033Z,101782.34
2023-05-03T13:17:26.145Z,101778.16
2023-05-03T13:19:53.111Z,101769.09
2023-05-03T13:22:19.652Z,101760.34
2023-05-03T13:24:48.071Z,101756.34
2023-05-03T13:27:16.057Z,101758.00
2023-05-03T13:29:42.651Z,101753.44
2023-05-03T13:32:09.728Z,101748.09
2023-05-03T13:34:36.662Z,101747.06
2023-05-03T13:37:06.638Z,101741.97
2023-05-03T13:39:33.375Z,101741.56
2023-05-03T13:42:00.281Z,101737.16
2023-05-03T13:44:26.942Z,101731.59
2023-05-03T13:46:54.016Z,101732.78
2023-05-03T13:49:21.365Z,101729.25
2023-05-03T13:51:48.101Z,101718.16
2023-05-03T13:54:14.688Z,101713.66
2023-05-03T13:56:42.713Z,101724.25
2023-05-03T13:59:12.234Z,101714.69
2023-05-03T14:01:39.321Z,101716.47
2023-05-03T14:04:06.368Z,101710.91
2023-05-03T14:06:33.816Z,101700.84
2023-05-03T14:09:01.676Z,101700.31
2023-05-03T14:11:30.267Z,101699.31
2023-05-03T14:13:58.147Z,101687.97
2023-05-03T14:16:40.159Z,101682.78
2023-05-03T14:19:09.921Z,101683.31
2023-05-03T14:21:36.774Z,101679.13
2023-05-03T14:24:03.545Z,101671.38
2023-05-03T14:26:30.181Z,101683.19
2023-05-03T14:28:56.972Z,101665.84
2023-05-03T14:31:23.671Z,101665.25
2023-05-03T14:33:50.244Z,101666.88
2023-05-03T14:36:16.796Z,101665.66
2023-05-03T14:38:43.615Z,101666.81
2023-05-03T14:41:10.248Z,101656.94
2023-05-03T14:43:37.384Z,101658.28
2023-05-03T14:46:04.263Z,101654.81
2023-05-03T14:48:30.836Z,101646.66
2023-05-03T14:50:57.614Z,101654.28
2023-05-03T14:53:24.251Z,101645.81
2023-05-03T14:55:51.211Z,101652.34
2023-05-03T14:58:18.521Z,101644.97
2023-05-03T15:00:45.250Z,101647.25
2023-05-03T15:03:12.792Z,101642.50
2023-05-03T15:05:47.500Z,101636.06
2023-05-03T15:08:16.700Z,101633.28
2023-05-03T15:10:47.605Z,101644.03
2023-05-03T15:13:16.118Z,101633.69
2023-05-03T15:15:43.871Z,101634.84
2023-05-03T15:18:11.284Z,101642.06
2023-05-03T15:20:38.311Z,101630.78
2023-05-03T15:23:05.185Z,101640.25
2023-05-03T15:25:32.356Z,101635.72
2023-05-03T15:28:01.895Z,101638.09
2023-05-03T15:30:31.108Z,101625.59
2023-05-03T15:32:57.842Z,101630.63
2023-05-03T15:35:24.549Z,101626.06
2023-05-03T15:37:51.347Z,101629.75
2023-05-03T15:40:18.616Z,101625.78
2023-05-03T15:42:45.362Z,101624.06
2023-05-03T15:45:13.188Z,101613.41
2023-05-03T15:47:39.851Z,101620.34
2023-05-03T15:50:07.848Z,101618.81
2023-05-03T15:52:34.926Z,101619.66
2023-05-03T15:55:01.684Z,101623.44
2023-05-03T15:57:29.637Z,101621.88
2023-05-03T15:59:56.927Z,101611.16
2023-05-03T16:02:23.684Z,101607.88
2023-05-03T16:04:50.787Z,101615.84
2023-05-03T16:07:17.891Z,101618.50
2023-05-03T16:09:44.656Z,101599.94
2023-05-03T16:12:11.331Z,101600.22
2023-05-03T16:14:38.016Z,101600.34
2023-05-03T16:17:04.538Z,101599.69
2023-05-03T16:19:31.901Z,101606.53
2023-05-03T16:21:58.618Z,101600.31
2023-05-03T16:24:25.433Z,101594.19
2023-05-03T16:26:52.573Z,101593.44
2023-05-03T16:29:19.383Z,101591.75
2023-05-03T16:31:46.915Z,101587.91
2023-05-03T16:34:14.142Z,101594.69
2023-05-03T16:36:42.977Z,101586.50
2023-05-03T16:39:11.352Z,101580.53
2023-05-03T16:41:38.403Z,101576.38
2023-05-03T16:44:07.469Z,101583.53
2023-05-03T16:46:44.071Z,101572.03
2023-05-03T16:49:11.292Z,101574.72
2023-05-03T16:51:37.965Z,101572.16
2023-05-03T16:54:04.955Z,101577.50
2023-05-03T16:56:32.095Z,101566.50
2023-05-03T16:59:02.937Z,101567.19
2023-05-03T17:01:29.529Z,101559.78
2023-05-03T17:03:56.074Z,101563.69
2023-05-03T17:06:23.151Z,101554.00
2023-05-03T17:08:49.806Z,101554.72
2023-05-03T17:11:16.576Z,101563.72
2023-05-03T17:13:43.417Z,101557.72
2023-05-03T17:16:15.069Z,101560.25
2023-05-03T17:18:42.470Z,101553.47
2023-05-03T17:21:09.913Z,101552.69
2023-05-03T17:23:38.259Z,101553.16
2023-05-03T17:26:08.285Z,101555.41
2023-05-03T17:28:35.620Z,101556.09
2023-05-03T17:31:12.514Z,101555.56
2023-05-03T17:33:39.104Z,101548.94
2023-05-03T17:36:05.993Z,101546.00
2023-05-03T17:38:33.815Z,101560.56
2023-05-03T17:41:07.581Z,101546.44
2023-05-03T17:43:35.532Z,101554.59
2023-05-03T17:46:10.884Z,101541.41
2023-05-03T17:48:39.674Z,101546.81
2023-05-03T17:51:07.672Z,101542.41
2023-05-03T17:53:34.460Z,101546.06
2023-05-03T17:56:01.009Z,101547.88
2023-05-03T17:58:27.694Z,101547.66
2023-05-03T18:00:54.217Z,101548.59
2023-05-03T18:03:20.880Z,101546.00
2023-05-03T18:05:47.979Z,101542.84
2023-05-03T18:08:14.585Z,101545.47
2023-05-03T18:10:42.986Z,101541.00
2023-05-03T18:13:10.729Z,101544.88
2023-05-03T18:15:41.854Z,101545.66
2023-05-03T18:18:08.855Z,101544.06
2023-05-03T18:20:35.688Z,101542.63
2023-05-03T18:23:02.592Z,101548.59
2023-05-03T18:25:29.265Z,101550.78
2023-05-03T18:27:57.076Z,101538.97
2023-05-03T18:30:26.112Z,101542.66
2023-05-03T18:32:52.677Z,101545.28
2023-05-03T18:35:19.275Z,101543.22
2023-05-03T18:37:46.030Z,101545.13
2023-05-03T18:40:12.732Z,101540.50
2023-05-03T18:42:39.375Z,101540.69
2023-05-03T18:45:06.948Z,101525.47
2023-05-03T18:47:33.593Z,101538.41
2023-05-03T18:50:00.127Z,101533.19
2023-05-03T18:52:26.681Z,101538.56
2023-05-03T18:54:54.064Z,101528.69
2023-05-03T18:57:20.737Z,101535.34
2023-05-03T18:59:59.586Z,101535.03
2023-05-03T19:02:30.410Z,101534.22
2023-05-03T19:04:57.393Z,101536.31
2023-05-03T19:07:24.151Z,101529.47
2023-05-03T19:09:55.009Z,101534.44
2023-05-03T19:12:22.151Z,101540.22
2023-05-03T19:14:48.841Z,101540.41
2023-05-03T19:17:15.477Z,101529.81
2023-05-03T19:19:41.973Z,101544.78
2023-05-03T19:22:08.565Z,101534.16
2023-05-03T19:24:35.249Z,101537.72
2023-05-03T19:27:02.126Z,101538.00
2023-05-03T19:29:29.599Z,101530.97
2023-05-03T19:31:56.323Z,101540.03
2023-05-03T19:34:22.851Z,101539.50
2023-05-03T19:36:50.080Z,101533.91
2023-05-03T19:39:16.579Z,101537.88
2023-05-03T19:41:43.491Z,101534.56
2023-05-03T19:44:10.305Z,101540.03
2023-05-03T19:46:36.891Z,101540.69
2023-05-03T19:49:03.950Z,101546.31
2023-05-03T19:51:31.245Z,101546.75
2023-05-03T19:53:57.764Z,101541.56
2023-05-03T19:56:25.000Z,101538.53
2023-05-03T19:58:51.652Z,101542.25
2023-05-03T20:01:18.457Z,101548.03
2023-05-03T20:03:45.453Z,101542.94
2023-05-03T20:06:12.299Z,101545.06
2023-05-03T20:08:39.053Z,101551.97
2023-05-03T20:11:05.808Z,101548.22
2023-05-03T20:13:33.586Z,101549.69
2023-05-03T20:16:04.685Z,101555.03
2023-05-03T20:18:31.603Z,101548.78
2023-05-03T20:20:58.271Z,101546.34
2023-05-03T20:23:25.072Z,101551.81
2023-05-03T20:25:51.668Z,101538.59
2023-05-03T20:28:18.591Z,101555.19
2023-05-03T20:30:45.316Z,101538.56
2023-05-03T20:33:12.331Z,101536.72
2023-05-03T20:35:39.039Z,101539.66
2023-05-03T20:38:05.756Z,101540.66
2023-05-03T20:40:35.708Z,101536.06
2023-05-03T20:43:02.564Z,101528.22
2023-05-03T20:45:29.787Z,101528.22
2023-05-03T20:47:56.504Z,101527.28
2023-05-03T20:50:23.193Z,101522.88
2023-05-03T20:52:50.113Z,101518.75
2023-05-03T20:55:16.928Z,101526.19
2023-05-03T20:57:43.822Z,101528.81
2023-05-03T21:00:17.537Z,101530.91
2023-05-03T21:02:44.900Z,101525.91
2023-05-03T21:05:11.808Z,101529.97
2023-05-03T21:07:38.700Z,101525.91
2023-05-03T21:10:07.145Z,101511.03
2023-05-03T21:12:34.740Z,101527.47
2023-05-03T21:15:02.002Z,101517.78
2023-05-03T21:17:28.809Z,101525.44
2023-05-03T21:19:55.742Z,101517.78
2023-05-03T21:22:22.779Z,101520.66
2023-05-03T21:24:50.053Z,101524.09
2023-05-03T21:27:16.792Z,101514.38
2023-05-03T21:29:43.276Z,101508.03
2023-05-03T21:32:09.957Z,101515.81
2023-05-03T21:34:36.577Z,101517.50
2023-05-03T21:37:03.646Z,101504.25
2023-05-03T21:39:30.233Z,101496.00
2023-05-03T21:41:56.961Z,101506.53
2023-05-03T21:44:23.484Z,101502.19
2023-05-03T21:46:50.083Z,101498.28
2023-05-03T21:49:16.675Z,101494.84
2023-05-03T21:51:43.348Z,101494.38
2023-05-03T21:54:09.848Z,101478.41
2023-05-03T21:56:36.504Z,101489.75
2023-05-03T21:59:03.086Z,101477.22
2023-05-03T22:01:29.802Z,101487.78
2023-05-03T22:03:56.509Z,101482.03
2023-05-03T22:06:23.271Z,101484.13
2023-05-03T22:08:49.772Z,101480.06
2023-05-03T22:11:16.362Z,101483.50
2023-05-03T22:13:58.788Z,101476.94
2023-05-03T22:16:29.660Z,101486.94
2023-05-03T22:18:56.269Z,101487.84
2023-05-03T22:21:22.852Z,101485.50
2023-05-03T22:23:49.428Z,101480.66
2023-05-03T22:26:16.345Z,101483.44
2023-05-03T22:28:42.900Z,101477.63
2023-05-03T22:31:09.587Z,101478.72
2023-05-03T22:33:36.073Z,101471.28
2023-05-03T22:36:02.686Z,101476.03
2023-05-03T22:38:29.201Z,101478.09
2023-05-03T22:40:55.790Z,101468.50
2023-05-03T22:43:22.276Z,101469.06
2023-05-03T22:45:48.883Z,101464.09
2023-05-03T22:48:15.425Z,101466.41
2023-05-03T22:50:42.020Z,101460.78
2023-05-03T22:53:08.653Z,101457.88
2023-05-03T22:55:35.296Z,101464.84
2023-05-03T22:58:01.895Z,101464.22
2023-05-03T23:00:28.451Z,101462.25
2023-05-03T23:02:55.518Z,101466.06
2023-05-03T23:05:22.234Z,101459.34
2023-05-03T23:07:49.000Z,101456.22
2023-05-03T23:10:15.693Z,101455.25
2023-05-03T23:12:42.442Z,101455.13
2023-05-03T23:15:10.316Z,101446.78
2023-05-03T23:17:36.990Z,101448.47
2023-05-03T23:20:05.431Z,101460.88
2023-05-03T23:22:32.298Z,101451.09
2023-05-03T23:24:59.108Z,101448.00
2023-05-03T23:27:25.681Z,101441.28
2023-05-03T23:29:52.891Z,101438.75
2023-05-03T23:32:20.160Z,101437.72
2023-05-03T23:34:47.185Z,101438.09
2023-05-03T23:37:13.734Z,101439.31
2023-05-03T23:39:44.338Z,101436.53
2023-05-03T23:42:12.162Z,101432.78
2023-05-03T23:44:53.797Z,101431.44
2023-05-03T23:47:22.589Z,101433.75
2023-05-03T23:49:49.578Z,101423.28
2023-05-03T23:52:18.873Z,101423.41
2023-05-03T23:54:45.724Z,101413.44
2023-05-03T23:57:12.266Z,101426.19
2023-05-03T23:59:38.800Z,101419.41
